createdAt,value
2022-07-27T00:00:47.357Z,16.03
2022-07-27T00:03:14.101Z,16.01
2022-07-27T00:05:40.896Z,16.01
2022-07-27T00:08:07.843Z,16.05
2022-07-27T00:10:35.943Z,16.10
2022-07-27T00:13:03.353Z,16.09
2022-07-27T00:15:30.198Z,16.00
2022-07-27T00:18:00.717Z,15.99
2022-07-27T00:20:31.741Z,15.97
2022-07-27T00:22:59.632Z,15.99
2022-07-27T00:25:30.067Z,16.00
2022-07-27T00:27:59.563Z,15.99
2022-07-27T00:30:26.855Z,15.97
2022-07-27T00:32:53.568Z,15.95
2022-07-27T00:35:20.349Z,15.95
2022-07-27T00:37:46.992Z,15.92
2022-07-27T00:40:14.208Z,15.95
2022-07-27T00:42:40.940Z,15.97
2022-07-27T00:45:08.237Z,15.97
2022-07-27T00:47:34.957Z,15.94
2022-07-27T00:50:03.388Z,15.95
2022-07-27T00:52:30.748Z,15.95
2022-07-27T00:54:58.960Z,15.97
2022-07-27T00:57:28.233Z,15.96
2022-07-27T00:59:54.950Z,15.89
2022-07-27T01:02:23.006Z,15.81
2022-07-27T01:04:53.924Z,15.78
2022-07-27T01:07:24.498Z,15.81
2022-07-27T01:09:57.584Z,15.77
2022-07-27T01:12:32.410Z,15.82
2022-07-27T01:14:59.856Z,15.83
2022-07-27T01:17:30.920Z,15.84
2022-07-27T01:19:59.284Z,15.81
2022-07-27T01:22:26.437Z,15.79
2022-07-27T01:24:53.316Z,15.76
2022-07-27T01:27:19.915Z,15.76
2022-07-27T01:29:46.613Z,15.75
2022-07-27T01:32:13.546Z,15.75
2022-07-27T01:34:40.194Z,15.73
2022-07-27T01:37:06.971Z,15.75
2022-07-27T01:39:34.181Z,15.73
2022-07-27T01:42:01.703Z,15.71
2022-07-27T01:44:28.368Z,15.72
2022-07-27T01:46:55.354Z,15.72
2022-07-27T01:49:22.407Z,15.72
2022-07-27T01:51:49.103Z,15.68
2022-07-27T01:54:15.883Z,15.68
2022-07-27T01:56:42.616Z,15.69
2022-07-27T01:59:16.199Z,15.70
2022-07-27T02:01:44.240Z,15.66
2022-07-27T02:04:10.960Z,15.68
2022-07-27T02:06:37.565Z,15.58
2022-07-27T02:09:04.264Z,15.36
2022-07-27T02:11:49.763Z,15.24
2022-07-27T02:14:16.698Z,15.20
2022-07-27T02:16:43.570Z,15.25
2022-07-27T02:19:11.137Z,15.22
2022-07-27T02:21:39.012Z,15.27
2022-07-27T02:24:06.042Z,15.35
2022-07-27T02:26:32.689Z,15.23
2022-07-27T02:28:59.286Z,15.03
2022-07-27T02:31:26.019Z,14.89
2022-07-27T02:33:56.564Z,14.92
2022-07-27T02:36:23.245Z,14.97
2022-07-27T02:38:49.837Z,14.94
2022-07-27T02:41:17.104Z,14.79
2022-07-27T02:43:43.731Z,14.71
2022-07-27T02:46:10.370Z,14.65
2022-07-27T02:48:37.180Z,14.73
2022-07-27T02:51:04.222Z,14.71
2022-07-27T02:53:31.125Z,14.72
2022-07-27T02:55:58.151Z,14.60
2022-07-27T02:58:24.854Z,14.51
2022-07-27T03:00:54.925Z,14.46
2022-07-27T03:03:24.914Z,14.51
2022-07-27T03:06:03.107Z,14.56
2022-07-27T03:08:29.816Z,14.36
2022-07-27T03:10:56.430Z,14.25
2022-07-27T03:13:23.028Z,14.30
2022-07-27T03:15:49.717Z,14.42
2022-07-27T03:18:16.408Z,14.42
2022-07-27T03:20:42.973Z,14.45
2022-07-27T03:23:09.556Z,14.42
2022-07-27T03:25:36.425Z,14.50
2022-07-27T03:28:04.353Z,14.47
2022-07-27T03:30:32.183Z,14.39
2022-07-27T03:32:59.096Z,14.36
2022-07-27T03:35:25.761Z,14.44
2022-07-27T03:37:52.596Z,14.53
2022-07-27T03:40:19.178Z,14.63
2022-07-27T03:42:45.890Z,14.62
2022-07-27T03:45:12.485Z,14.54
2022-07-27T03:47:39.038Z,14.57
2022-07-27T03:50:06.116Z,14.54
2022-07-27T03:52:32.690Z,14.60
2022-07-27T03:54:59.287Z,14.54
2022-07-27T03:57:25.819Z,14.46
2022-07-27T03:59:52.426Z,14.32
2022-07-27T04:02:19.076Z,14.27
2022-07-27T04:04:45.666Z,14.25
2022-07-27T04:07:12.206Z,14.23
2022-07-27T04:09:39.514Z,14.16
2022-07-27T04:12:08.427Z,14.12
2022-07-27T04:14:35.833Z,14.01
2022-07-27T04:17:02.447Z,13.98
2022-07-27T04:19:29.096Z,13.95
2022-07-27T04:21:55.631Z,13.98
2022-07-27T04:24:22.301Z,14.03
2022-07-27T04:26:48.887Z,14.16
2022-07-27T04:29:20.149Z,14.27
2022-07-27T04:31:47.695Z,14.22
2022-07-27T04:34:14.295Z,14.12
2022-07-27T04:36:40.932Z,14.09
2022-07-27T04:39:08.072Z,14.06
2022-07-27T04:41:34.784Z,14.04
2022-07-27T04:44:01.498Z,13.94
2022-07-27T04:46:29.864Z,13.96
2022-07-27T04:48:56.875Z,13.94
2022-07-27T04:51:23.582Z,14.02
2022-07-27T04:53:52.809Z,14.07
2022-07-27T04:56:24.293Z,14.07
2022-07-27T04:58:50.822Z,14.06
2022-07-27T05:01:17.481Z,14.03
2022-07-27T05:03:44.297Z,14.02
2022-07-27T05:06:10.917Z,14.09
2022-07-27T05:08:37.459Z,14.02
2022-07-27T05:11:04.011Z,14.02
2022-07-27T05:13:30.548Z,14.12
2022-07-27T05:15:57.091Z,14.21
2022-07-27T05:18:24.368Z,14.21
2022-07-27T05:20:51.054Z,14.10
2022-07-27T05:23:17.916Z,14.01
2022-07-27T05:25:44.564Z,13.87
2022-07-27T05:28:14.255Z,13.86
2022-07-27T05:30:41.173Z,13.88
2022-07-27T05:33:07.940Z,13.87
2022-07-27T05:35:34.508Z,13.92
2022-07-27T05:38:01.027Z,13.93
2022-07-27T05:40:27.798Z,13.99
2022-07-27T05:42:54.380Z,13.93
2022-07-27T05:45:21.190Z,13.93
2022-07-27T05:47:47.851Z,13.97
2022-07-27T05:50:15.722Z,14.03
2022-07-27T05:52:43.590Z,14.08
2022-07-27T05:55:10.837Z,14.17
2022-07-27T05:57:38.066Z,14.29
2022-07-27T06:00:06.912Z,14.39
2022-07-27T06:02:33.730Z,14.47
2022-07-27T06:05:00.265Z,14.57
2022-07-27T06:07:45.164Z,14.66
2022-07-27T06:10:16.970Z,14.77
2022-07-27T06:12:44.738Z,14.84
2022-07-27T06:15:12.467Z,14.92
2022-07-27T06:17:39.315Z,14.98
2022-07-27T06:20:07.337Z,15.06
2022-07-27T06:22:43.569Z,15.06
2022-07-27T06:25:10.117Z,15.01
2022-07-27T06:27:37.978Z,15.00
2022-07-27T06:30:05.763Z,15.10
2022-07-27T06:32:32.495Z,15.17
2022-07-27T06:35:04.481Z,15.22
2022-07-27T06:37:31.432Z,15.27
2022-07-27T06:39:59.411Z,15.35
2022-07-27T06:42:25.975Z,15.41
2022-07-27T06:44:52.651Z,15.48
2022-07-27T06:47:19.440Z,15.57
2022-07-27T06:49:46.359Z,15.66
2022-07-27T06:52:12.880Z,15.77
2022-07-27T06:54:39.724Z,15.84
2022-07-27T06:57:06.351Z,15.92
2022-07-27T06:59:42.597Z,16.02
2022-07-27T07:02:10.262Z,16.13
2022-07-27T07:04:36.849Z,16.27
2022-07-27T07:07:07.007Z,16.40
2022-07-27T07:09:34.598Z,16.52
2022-07-27T07:12:02.448Z,16.64
2022-07-27T07:14:29.213Z,16.70
2022-07-27T07:16:55.739Z,16.80
2022-07-27T07:19:22.559Z,16.93
2022-07-27T07:21:49.240Z,17.05
2022-07-27T07:24:15.813Z,17.16
2022-07-27T07:26:42.403Z,17.28
2022-07-27T07:29:09.515Z,17.44
2022-07-27T07:31:36.541Z,17.60
2022-07-27T07:34:03.651Z,17.70
2022-07-27T07:36:30.256Z,17.87
2022-07-27T07:38:56.900Z,18.02
2022-07-27T07:41:23.819Z,18.12
2022-07-27T07:43:50.892Z,18.18
2022-07-27T07:46:17.538Z,18.29
2022-07-27T07:48:44.331Z,18.45
2022-07-27T07:51:11.384Z,18.54
2022-07-27T07:53:41.610Z,18.65
2022-07-27T07:56:08.793Z,18.84
2022-07-27T07:58:35.440Z,18.92
2022-07-27T08:01:01.984Z,19.04
2022-07-27T08:03:28.649Z,19.15
2022-07-27T08:05:55.244Z,19.22
2022-07-27T08:08:24.857Z,19.37
2022-07-27T08:10:51.832Z,19.44
2022-07-27T08:13:22.189Z,19.57
2022-07-27T08:15:49.862Z,19.68
2022-07-27T08:18:16.547Z,19.77
2022-07-27T08:20:43.228Z,19.81
2022-07-27T08:23:09.951Z,19.81
2022-07-27T08:25:39.262Z,19.81
2022-07-27T08:28:07.513Z,19.83
2022-07-27T08:30:34.908Z,19.92
2022-07-27T08:33:04.217Z,19.98
2022-07-27T08:35:31.864Z,20.00
2022-07-27T08:37:59.480Z,20.10
2022-07-27T08:40:44.067Z,20.24
2022-07-27T08:43:20.158Z,20.25
2022-07-27T08:45:55.275Z,20.29
2022-07-27T08:48:24.362Z,20.40
2022-07-27T08:50:51.154Z,20.45
2022-07-27T08:53:18.555Z,20.45
2022-07-27T08:55:47.454Z,20.48
2022-07-27T08:58:14.992Z,20.57
2022-07-27T09:00:47.149Z,20.67
2022-07-27T09:03:19.629Z,20.75
2022-07-27T09:05:52.518Z,20.75
2022-07-27T09:08:31.379Z,20.78
2022-07-27T09:10:59.802Z,20.79
2022-07-27T09:13:27.880Z,20.76
2022-07-27T09:18:45.994Z,20.83
2022-07-27T09:21:18.675Z,20.90
2022-07-27T09:23:50.996Z,21.00
2022-07-27T09:26:33.232Z,21.14
2022-07-27T09:29:03.690Z,21.12
2022-07-27T09:31:31.381Z,21.13
2022-07-27T09:34:01.382Z,21.17
2022-07-27T09:36:30.300Z,21.19
2022-07-27T09:39:12.970Z,21.21
2022-07-27T09:41:48.667Z,21.28
2022-07-27T09:44:43.878Z,21.30
2022-07-27T09:47:21.703Z,21.28
2022-07-27T09:49:48.567Z,21.40
2022-07-27T09:52:28.715Z,21.51
2022-07-27T09:55:02.595Z,21.56
2022-07-27T09:57:29.162Z,21.64
2022-07-27T10:00:13.736Z,21.71
2022-07-27T10:02:40.677Z,21.76
2022-07-27T10:05:07.809Z,21.82
2022-07-27T10:07:34.673Z,21.74
2022-07-27T10:10:02.944Z,21.68
2022-07-27T10:12:30.136Z,21.72
2022-07-27T10:14:56.800Z,21.76
2022-07-27T10:17:24.133Z,21.69
2022-07-27T10:19:51.166Z,21.66
2022-07-27T10:22:56.695Z,21.74
2022-07-27T10:25:24.704Z,21.82
2022-07-27T10:28:13.190Z,21.82
2022-07-27T10:30:39.864Z,21.83
2022-07-27T10:33:33.342Z,21.84
2022-07-27T10:36:02.278Z,21.92
2022-07-27T10:38:44.569Z,21.98
2022-07-27T10:41:41.390Z,22.15
2022-07-27T10:44:23.826Z,22.25
2022-07-27T10:46:56.578Z,22.21
2022-07-27T10:49:23.200Z,22.21
2022-07-27T10:51:50.659Z,22.25
2022-07-27T10:54:21.491Z,22.31
2022-07-27T10:56:50.793Z,22.40
2022-07-27T11:00:08.722Z,22.45
2022-07-27T11:02:42.167Z,22.56
2022-07-27T11:05:42.637Z,22.59
2022-07-27T11:08:35.501Z,22.55
2022-07-27T11:10:45.843Z,22.54
2022-07-27T11:13:13.240Z,22.72
2022-07-27T11:15:40.144Z,22.72
2022-07-27T11:18:06.742Z,22.63
2022-07-27T11:20:33.286Z,22.66
2022-07-27T11:23:48.866Z,22.63
2022-07-27T11:26:00.232Z,22.54
2022-07-27T11:28:31.055Z,22.44
2022-07-27T11:30:58.789Z,22.44
2022-07-27T11:33:25.768Z,22.41
2022-07-27T11:36:01.329Z,22.28
2022-07-27T11:38:28.822Z,22.33
2022-07-27T11:40:57.055Z,22.33
2022-07-27T11:43:45.109Z,22.29
2022-07-27T11:46:27.668Z,22.26
2022-07-27T11:49:07.130Z,22.27
2022-07-27T11:51:37.067Z,22.26
2022-07-27T11:54:05.138Z,22.28
2022-07-27T11:56:34.297Z,22.36
2022-07-27T11:59:09.275Z,22.37
2022-07-27T12:01:43.335Z,22.32
2022-07-27T12:04:13.181Z,22.31
2022-07-27T12:07:07.704Z,22.33
2022-07-27T12:09:39.094Z,22.36
2022-07-27T12:12:14.350Z,22.43
2022-07-27T12:14:46.357Z,22.49
2022-07-27T12:17:14.508Z,22.54
2022-07-27T12:19:42.045Z,22.55
2022-07-27T12:22:09.541Z,22.61
2022-07-27T12:24:41.248Z,22.68
2022-07-27T12:27:13.930Z,22.80
2022-07-27T12:29:58.687Z,22.85
2022-07-27T12:32:26.853Z,22.90
2022-07-27T12:34:54.910Z,22.90
2022-07-27T12:37:22.138Z,23.03
2022-07-27T12:39:49.805Z,23.11
2022-07-27T12:42:16.695Z,23.18
2022-07-27T12:44:44.981Z,23.18
2022-07-27T12:47:30.676Z,23.23
2022-07-27T12:50:07.922Z,23.33
2022-07-27T12:52:36.697Z,23.28
2022-07-27T12:55:04.777Z,23.24
2022-07-27T12:57:53.878Z,23.31
2022-07-27T13:00:19.624Z,23.44
2022-07-27T13:02:46.665Z,23.58
2022-07-27T13:05:15.284Z,23.74
2022-07-27T13:07:44.054Z,23.81
2022-07-27T13:10:11.366Z,23.98
2022-07-27T13:12:38.946Z,24.01
2022-07-27T13:15:08.128Z,24.09
2022-07-27T13:17:35.961Z,24.10
2022-07-27T13:20:04.079Z,24.16
2022-07-27T13:22:30.967Z,24.11
2022-07-27T13:24:57.497Z,24.01
2022-07-27T13:27:24.152Z,24.02
2022-07-27T13:29:50.780Z,24.06
2022-07-27T13:32:18.316Z,24.05
2022-07-27T13:34:45.477Z,24.07
2022-07-27T13:37:12.179Z,23.99
2022-07-27T13:39:38.982Z,24.07
2022-07-27T13:42:05.642Z,24.18
2022-07-27T13:44:59.381Z,24.32
2022-07-27T13:47:18.946Z,24.40
2022-07-27T13:49:45.489Z,24.46
2022-07-27T13:52:14.906Z,24.41
2022-07-27T13:54:42.115Z,24.38
2022-07-27T13:57:08.732Z,24.34
2022-07-27T13:59:35.274Z,24.28
2022-07-27T14:02:01.961Z,24.38
2022-07-27T14:04:29.958Z,24.28
2022-07-27T14:06:58.858Z,24.17
2022-07-27T14:09:45.364Z,24.11
2022-07-27T14:12:12.064Z,24.07
2022-07-27T14:14:38.994Z,24.17
2022-07-27T14:17:06.949Z,24.25
2022-07-27T14:19:36.124Z,24.37
2022-07-27T14:22:03.016Z,24.42
2022-07-27T14:24:30.923Z,24.35
2022-07-27T14:26:59.129Z,24.37
2022-07-27T14:29:25.707Z,24.30
2022-07-27T14:31:52.364Z,24.26
2022-07-27T14:34:18.899Z,24.29
2022-07-27T14:36:45.450Z,24.37
2022-07-27T14:39:12.381Z,24.50
2022-07-27T14:41:44.145Z,24.56
2022-07-27T14:44:10.970Z,24.53
2022-07-27T14:46:37.545Z,24.55
2022-07-27T14:49:06.047Z,24.55
2022-07-27T14:51:33.395Z,24.41
2022-07-27T14:54:00.152Z,24.31
2022-07-27T14:56:27.012Z,24.25
2022-07-27T14:58:53.870Z,24.18
2022-07-27T15:01:20.526Z,24.06
2022-07-27T15:03:56.769Z,24.06
2022-07-27T15:06:23.561Z,24.01
2022-07-27T15:08:50.153Z,23.93
2022-07-27T15:11:16.782Z,23.89
2022-07-27T15:13:43.349Z,23.83
2022-07-27T15:16:11.399Z,23.81
2022-07-27T15:18:39.160Z,23.73
2022-07-27T15:21:13.546Z,23.66
2022-07-27T15:23:43.112Z,23.61
2022-07-27T15:26:09.797Z,23.60
2022-07-27T15:28:36.503Z,23.60
2022-07-27T15:31:03.244Z,23.63
2022-07-27T15:33:29.952Z,23.66
2022-07-27T15:35:56.728Z,23.70
2022-07-27T15:38:23.398Z,23.66
2022-07-27T15:40:50.361Z,23.63
2022-07-27T15:43:18.415Z,23.59
2022-07-27T15:45:48.306Z,23.55
2022-07-27T15:48:16.590Z,23.50
2022-07-27T15:50:45.569Z,23.48
2022-07-27T15:53:14.259Z,23.51
2022-07-27T15:55:42.647Z,23.51
2022-07-27T15:58:10.356Z,23.54
2022-07-27T16:00:40.721Z,23.55
2022-07-27T16:03:08.219Z,23.49
2022-07-27T16:05:34.863Z,23.51
2022-07-27T16:08:01.477Z,23.54
2022-07-27T16:10:29.972Z,23.53
2022-07-27T16:12:57.407Z,23.49
2022-07-27T16:15:42.279Z,23.46
2022-07-27T16:18:09.858Z,23.44
2022-07-27T16:20:36.845Z,23.43
2022-07-27T16:23:03.686Z,23.39
2022-07-27T16:26:02.780Z,23.38
2022-07-27T16:28:30.637Z,23.39
2022-07-27T16:30:57.933Z,23.41
2022-07-27T16:33:25.047Z,23.47
2022-07-27T16:35:51.707Z,23.48
2022-07-27T16:38:18.595Z,23.43
2022-07-27T16:40:45.190Z,23.38
2022-07-27T16:43:11.749Z,23.33
2022-07-27T16:45:38.274Z,23.30
2022-07-27T16:48:04.992Z,23.27
2022-07-27T16:50:31.577Z,23.24
2022-07-27T16:52:58.217Z,23.25
2022-07-27T16:55:27.536Z,23.28
2022-07-27T16:57:54.525Z,23.30
2022-07-27T17:00:21.355Z,23.33
2022-07-27T17:02:47.986Z,23.35
2022-07-27T17:05:14.530Z,23.37
2022-07-27T17:07:42.876Z,23.39
2022-07-27T17:10:10.003Z,23.38
2022-07-27T17:12:39.101Z,23.38
2022-07-27T17:15:06.463Z,23.26
2022-07-27T17:17:33.035Z,23.23
2022-07-27T17:19:59.912Z,23.21
2022-07-27T17:22:26.699Z,23.21
2022-07-27T17:24:53.276Z,23.23
2022-07-27T17:27:19.787Z,23.17
2022-07-27T17:29:46.434Z,23.13
2022-07-27T17:32:13.238Z,23.08
2022-07-27T17:34:41.576Z,22.92
2022-07-27T17:37:08.253Z,22.85
2022-07-27T17:39:35.415Z,22.86
2022-07-27T17:42:02.234Z,22.82
2022-07-27T17:44:28.839Z,22.79
2022-07-27T17:46:55.515Z,22.74
2022-07-27T17:49:22.200Z,22.71
2022-07-27T17:51:48.775Z,22.67
2022-07-27T17:54:15.574Z,22.62
2022-07-27T17:56:42.144Z,22.56
2022-07-27T17:59:27.301Z,22.52
2022-07-27T18:01:56.706Z,22.41
2022-07-27T18:04:23.456Z,22.31
2022-07-27T18:06:50.120Z,22.23
2022-07-27T18:09:17.392Z,22.20
2022-07-27T18:11:44.572Z,22.15
2022-07-27T18:14:11.380Z,22.08
2022-07-27T18:16:40.733Z,22.03
2022-07-27T18:19:08.222Z,21.98
2022-07-27T18:21:35.922Z,21.95
2022-07-27T18:24:03.337Z,21.88
2022-07-27T18:26:29.939Z,21.82
2022-07-27T18:28:57.687Z,21.76
2022-07-27T18:31:24.712Z,21.68
2022-07-27T18:33:54.376Z,21.63
2022-07-27T18:36:21.340Z,21.54
2022-07-27T18:38:49.846Z,21.47
2022-07-27T18:41:19.014Z,21.43
2022-07-27T18:43:51.298Z,21.39
2022-07-27T18:46:21.798Z,21.31
2022-07-27T18:48:49.286Z,21.22
2022-07-27T18:51:16.897Z,21.18
2022-07-27T18:53:46.558Z,21.12
2022-07-27T18:56:13.291Z,21.12
2022-07-27T18:58:40.890Z,21.07
2022-07-27T19:01:09.746Z,21.00
2022-07-27T19:03:36.613Z,20.89
2022-07-27T19:06:03.337Z,20.90
2022-07-27T19:08:30.032Z,20.86
2022-07-27T19:10:56.696Z,20.80
2022-07-27T19:13:23.310Z,20.72
2022-07-27T19:15:49.904Z,20.70
2022-07-27T19:18:16.516Z,20.64
2022-07-27T19:20:43.058Z,20.59
2022-07-27T19:23:09.889Z,20.55
2022-07-27T19:25:36.476Z,20.52
2022-07-27T19:28:04.201Z,20.52
2022-07-27T19:30:30.955Z,20.49
2022-07-27T19:32:57.692Z,20.43
2022-07-27T19:35:24.280Z,20.38
2022-07-27T19:37:51.119Z,20.33
2022-07-27T19:40:43.545Z,20.29
2022-07-27T19:43:07.420Z,20.26
2022-07-27T19:45:35.281Z,20.24
2022-07-27T19:48:05.544Z,20.18
2022-07-27T19:50:32.799Z,20.10
2022-07-27T19:53:00.034Z,20.07
2022-07-27T19:55:26.792Z,20.09
2022-07-27T19:57:53.451Z,20.08
2022-07-27T20:00:20.245Z,20.06
2022-07-27T20:02:48.268Z,20.03
2022-07-27T20:05:14.953Z,19.99
2022-07-27T20:07:41.758Z,19.94
2022-07-27T20:10:08.732Z,19.89
2022-07-27T20:12:35.289Z,19.85
2022-07-27T20:15:02.261Z,19.85
2022-07-27T20:17:29.077Z,19.81
2022-07-27T20:19:55.609Z,19.77
2022-07-27T20:22:22.526Z,19.73
2022-07-27T20:24:49.059Z,19.69
2022-07-27T20:27:15.749Z,19.67
2022-07-27T20:29:42.272Z,19.68
2022-07-27T20:32:08.897Z,19.62
2022-07-27T20:34:35.536Z,19.59
2022-07-27T20:37:02.356Z,19.57
2022-07-27T20:39:28.901Z,19.55
2022-07-27T20:41:55.484Z,19.56
2022-07-27T20:44:22.094Z,19.52
2022-07-27T20:46:48.904Z,19.52
2022-07-27T20:49:17.121Z,19.52
2022-07-27T20:51:44.390Z,19.51
2022-07-27T20:54:11.086Z,19.50
2022-07-27T20:56:37.763Z,19.45
2022-07-27T20:59:08.848Z,19.42
2022-07-27T21:01:43.256Z,19.39
2022-07-27T21:04:10.422Z,19.36
2022-07-27T21:06:36.928Z,19.33
2022-07-27T21:09:03.681Z,19.31
2022-07-27T21:11:30.378Z,19.30
2022-07-27T21:13:56.956Z,19.28
2022-07-27T21:16:23.618Z,19.23
2022-07-27T21:18:50.237Z,19.18
2022-07-27T21:21:16.777Z,19.16
2022-07-27T21:24:02.692Z,19.15
2022-07-27T21:26:29.278Z,19.15
2022-07-27T21:28:56.400Z,19.13
2022-07-27T21:31:23.036Z,19.12
2022-07-27T21:33:50.378Z,19.09
2022-07-27T21:36:17.058Z,19.11
2022-07-27T21:38:43.654Z,19.10
2022-07-27T21:41:10.182Z,19.06
2022-07-27T21:43:36.756Z,19.05
2022-07-27T21:46:03.706Z,19.00
2022-07-27T21:48:30.415Z,18.98
2022-07-27T21:50:56.926Z,18.97
2022-07-27T21:53:23.477Z,18.94
2022-07-27T21:55:50.112Z,18.93
2022-07-27T21:58:16.692Z,18.92
2022-07-27T22:00:43.660Z,18.87
2022-07-27T22:03:10.659Z,18.84
2022-07-27T22:05:37.244Z,18.81
2022-07-27T22:08:03.973Z,18.79
2022-07-27T22:10:31.470Z,18.77
2022-07-27T22:12:58.681Z,18.75
2022-07-27T22:15:26.122Z,18.73
2022-07-27T22:17:52.902Z,18.70
2022-07-27T22:20:20.988Z,18.70
2022-07-27T22:22:48.343Z,18.68
2022-07-27T22:25:15.196Z,18.71
2022-07-27T22:27:41.824Z,18.72
2022-07-27T22:30:09.331Z,18.74
2022-07-27T22:32:35.965Z,18.73
2022-07-27T22:35:02.708Z,18.73
2022-07-27T22:37:29.337Z,18.71
2022-07-27T22:39:55.908Z,18.69
2022-07-27T22:42:22.481Z,18.68
2022-07-27T22:44:49.110Z,18.67
2022-07-27T22:47:15.625Z,18.65
2022-07-27T22:49:42.234Z,18.64
2022-07-27T22:52:08.810Z,18.65
2022-07-27T22:54:36.667Z,18.54
2022-07-27T22:57:04.996Z,18.50
2022-07-27T22:59:32.275Z,18.53
2022-07-27T23:01:58.968Z,18.53
2022-07-27T23:04:25.641Z,18.55
2022-07-27T23:06:52.229Z,18.48
2022-07-27T23:09:18.817Z,18.49
2022-07-27T23:11:45.477Z,18.49
2022-07-27T23:14:12.919Z,18.52
2022-07-27T23:16:39.887Z,18.53
2022-07-27T23:19:06.571Z,18.51
2022-07-27T23:21:33.158Z,18.52
2022-07-27T23:23:59.714Z,18.52
2022-07-27T23:26:27.504Z,18.51
2022-07-27T23:28:54.318Z,18.51
2022-07-27T23:31:22.350Z,18.53
2022-07-27T23:33:49.093Z,18.57
2022-07-27T23:36:15.995Z,18.54
2022-07-27T23:38:42.811Z,18.55
2022-07-27T23:41:09.394Z,18.56
2022-07-27T23:43:36.069Z,18.54
2022-07-27T23:46:04.155Z,18.52
2022-07-27T23:48:30.740Z,18.51
2022-07-27T23:50:57.362Z,18.49
2022-07-27T23:53:24.067Z,18.49
2022-07-27T23:55:50.719Z,18.47
2022-07-27T23:58:17.287Z,18.43
